Time;durP1;ratioP1;P1;durP2;ratioP2;P2;SDS_P1;SDS_P2;PMS_P1;PMS_P2;Temp;Humidity;BMP_temperature;BMP_pressure;BME280_temperature;BME280_humidity;BME280_pressure;Samples;Min_cycle;Max_cycle;Signal;HPM_P1;HPM_P2
2021/11/21 00:00:11;;;;;;;6.93;4.90;;;;;;;19.39;47.01;101461.53;5102818;28;20020;-67
2021/11/21 00:02:36;;;;;;;6.13;4.55;;;;;;;19.39;46.96;101461.53;5103954;28;20035;-67
2021/11/21 00:05:02;;;;;;;5.80;4.53;;;;;;;19.39;46.74;101455.41;5106327;28;20142;-67
2021/11/21 00:07:28;;;;;;;6.43;4.40;;;;;;;19.37;47.19;101454.69;5101151;28;20383;-67
2021/11/21 00:09:53;;;;;;;6.50;4.93;;;;;;;19.36;46.99;101442.44;5096236;28;20459;-67
2021/11/21 00:12:21;;;;;;;6.23;4.67;;;;;;;19.34;46.98;101439.06;5094584;28;20035;-67
2021/11/21 00:14:46;;;;;;;6.32;4.70;;;;;;;19.33;46.92;101440.88;5093692;28;20292;-67
2021/11/21 00:17:12;;;;;;;5.80;4.47;;;;;;;19.32;46.96;101435.69;5094357;28;20050;-66
2021/11/21 00:19:41;;;;;;;6.57;4.45;;;;;;;19.31;46.81;101431.38;5094514;28;20534;-67
2021/11/21 00:22:09;;;;;;;5.75;4.22;;;;;;;19.30;46.93;101427.06;5093431;28;20028;-68
2021/11/21 00:24:38;;;;;;;6.43;4.72;;;;;;;19.29;46.87;101428.00;5093769;28;20087;-68
2021/11/21 00:27:04;;;;;;;5.40;3.90;;;;;;;19.26;46.80;101420.31;5093366;28;20024;-66
2021/11/21 00:29:29;;;;;;;5.60;4.30;;;;;;;19.25;46.91;101414.19;5093457;28;20388;-67
2021/11/21 00:31:54;;;;;;;5.53;4.40;;;;;;;19.25;47.05;101410.69;5093811;28;20022;-68
2021/11/21 00:34:19;;;;;;;5.90;4.40;;;;;;;19.24;46.70;101412.50;5092868;28;20384;-67
2021/11/21 00:36:45;;;;;;;6.30;4.55;;;;;;;19.20;46.85;101406.63;5093411;28;20763;-67
2021/11/21 00:39:10;;;;;;;6.15;4.45;;;;;;;19.22;46.87;101406.50;5093649;28;20032;-68
2021/11/21 00:41:36;;;;;;;5.93;4.20;;;;;;;19.19;46.81;101401.47;5092414;28;20028;-67
2021/11/21 00:44:01;;;;;;;5.78;3.95;;;;;;;19.19;46.84;101397.00;5093378;28;20028;-67
2021/11/21 00:46:26;;;;;;;6.00;4.53;;;;;;;19.19;47.08;101404.09;5093016;28;20020;-67
2021/11/21 00:48:52;;;;;;;7.15;4.10;;;;;;;19.18;46.59;101403.25;5092683;28;20020;-67
2021/11/21 00:51:18;;;;;;;6.20;4.30;;;;;;;19.15;46.64;101394.72;5093314;28;20028;-68
2021/11/21 00:53:44;;;;;;;5.50;4.13;;;;;;;19.15;46.89;101394.72;5093078;28;20043;-68
2021/11/21 00:56:10;;;;;;;5.68;4.38;;;;;;;19.13;46.77;101397.47;5092381;28;20479;-67
2021/11/21 00:58:36;;;;;;;5.50;4.20;;;;;;;19.13;46.99;101389.53;5092705;28;20032;-67
2021/11/21 01:01:04;;;;;;;6.20;4.40;;;;;;;19.12;46.79;101387.88;5093240;28;20032;-67
2021/11/21 01:03:29;;;;;;;5.60;4.13;;;;;;;19.11;46.93;101377.44;5092143;28;20024;-67
2021/11/21 01:05:56;;;;;;;5.32;4.00;;;;;;;19.10;47.04;101373.94;5093213;28;20509;-67
2021/11/21 01:08:23;;;;;;;5.70;4.13;;;;;;;19.09;46.80;101377.56;5092963;28;20020;-67
2021/11/21 01:10:52;;;;;;;5.93;4.20;;;;;;;19.09;46.79;101377.56;5091929;28;20043;-68
2021/11/21 01:13:18;;;;;;;5.93;4.15;;;;;;;19.07;46.71;101374.16;5092493;28;20044;-67
2021/11/21 01:15:44;;;;;;;6.07;4.25;;;;;;;19.08;46.68;101380.31;5092770;28;20417;-67
2021/11/21 01:18:09;;;;;;;4.90;3.70;;;;;;;19.03;46.72;101381.50;5091472;28;20055;-67
2021/11/21 01:20:40;;;;;;;5.43;4.13;;;;;;;19.05;46.63;101380.53;5092411;28;20047;-67
2021/11/21 01:23:05;;;;;;;5.28;4.07;;;;;;;19.02;46.63;101369.22;5092628;28;20468;-68
2021/11/21 01:25:31;;;;;;;5.70;4.00;;;;;;;19.01;46.75;101369.38;5091737;28;20035;-67
2021/11/21 01:27:56;;;;;;;6.03;4.10;;;;;;;19.02;46.78;101374.50;5092675;28;20027;-67
2021/11/21 01:30:26;;;;;;;5.50;3.83;;;;;;;19.01;46.87;101369.38;5091940;28;20099;-67
2021/11/21 01:32:52;;;;;;;5.55;4.40;;;;;;;19.00;46.96;101370.31;5092845;28;20028;-68
2021/11/21 01:35:18;;;;;;;5.60;4.00;;;;;;;18.99;46.76;101373.91;5092923;28;20158;-67
2021/11/21 01:37:43;;;;;;;5.38;3.80;;;;;;;18.99;46.91;101366.00;5091614;28;20103;-68
2021/11/21 01:40:11;;;;;;;5.88;4.38;;;;;;;18.97;46.95;101370.56;5092670;28;20105;-67
2021/11/21 01:42:37;;;;;;;5.18;3.70;;;;;;;18.97;46.68;101360.00;5092311;28;20024;-67
2021/11/21 01:45:03;;;;;;;6.40;4.25;;;;;;;18.95;46.90;101354.81;5091110;28;20059;-67
2021/11/21 01:47:28;;;;;;;5.38;3.90;;;;;;;18.95;46.82;101346.91;5092360;28;20020;-67
2021/11/21 01:49:53;;;;;;;5.65;4.05;;;;;;;18.95;46.78;101351.34;5092601;28;20073;-67
2021/11/21 01:52:19;;;;;;;5.30;4.00;;;;;;;18.94;46.84;101342.56;5107530;28;20103;-67
2021/11/21 01:54:44;;;;;;;6.15;3.97;;;;;;;18.93;46.68;101334.75;5092402;28;20032;-67
2021/11/21 01:57:11;;;;;;;5.15;3.75;;;;;;;18.93;46.93;101338.25;5092761;28;20352;-67
2021/11/21 01:59:37;;;;;;;5.50;4.00;;;;;;;18.91;46.98;101342.81;5091720;28;20024;-67
2021/11/21 02:02:02;;;;;;;5.43;3.60;;;;;;;18.90;46.88;101341.13;5092566;28;20376;-68
2021/11/21 02:04:28;;;;;;;4.85;3.40;;;;;;;18.90;47.23;101335.00;5092291;28;20083;-67
2021/11/21 02:06:53;;;;;;;5.38;4.15;;;;;;;18.90;46.96;101335.00;5091892;28;20325;-66
2021/11/21 02:09:18;;;;;;;5.00;3.50;;;;;;;18.88;46.88;101329.84;5092328;28;20460;-67
2021/11/21 02:11:44;;;;;;;5.57;4.10;;;;;;;18.89;46.65;101326.25;5091979;28;20028;-67
2021/11/21 02:14:10;;;;;;;5.25;4.00;;;;;;;18.88;46.64;101316.63;5091514;28;20040;-67
2021/11/21 02:16:36;;;;;;;5.70;3.88;;;;;;;18.88;46.72;101323.72;5092088;28;20016;-68
2021/11/21 02:19:01;;;;;;;5.40;3.85;;;;;;;18.85;47.05;101315.09;5092576;28;20111;-69
2021/11/21 02:21:27;;;;;;;5.35;3.70;;;;;;;18.84;46.77;101315.19;5091212;28;20432;-68
2021/11/21 02:23:53;;;;;;;5.88;3.85;;;;;;;18.86;46.76;101313.28;5092081;28;20067;-67
2021/11/21 02:26:18;;;;;;;5.45;3.75;;;;;;;18.84;46.68;101305.47;5092294;28;20468;-67
2021/11/21 02:28:45;;;;;;;4.90;3.63;;;;;;;18.83;46.56;101303.78;5091407;28;20017;-67
2021/11/21 02:31:11;;;;;;;5.00;3.50;;;;;;;18.83;46.62;101300.28;5095371;28;20460;-69
2021/11/21 02:33:38;;;;;;;5.93;4.03;;;;;;;18.82;46.54;101288.88;5095152;28;20035;-67
2021/11/21 02:36:05;;;;;;;5.55;3.83;;;;;;;18.82;46.78;101280.13;5096138;28;20050;-67
2021/11/21 02:38:32;;;;;;;5.70;3.88;;;;;;;18.81;46.51;101281.91;5095451;28;20040;-68
2021/11/21 02:41:00;;;;;;;5.32;3.83;;;;;;;18.80;46.92;101271.47;5095264;28;20829;-68
2021/11/21 02:43:26;;;;;;;5.55;3.60;;;;;;;18.80;46.50;101272.31;5095560;28;20024;-68
2021/11/21 02:45:53;;;;;;;5.13;3.63;;;;;;;18.80;46.72;101271.47;5096037;28;20024;-68
2021/11/21 02:48:21;;;;;;;5.15;3.70;;;;;;;18.80;46.81;101271.47;5095043;28;20032;-67
2021/11/21 02:50:47;;;;;;;5.18;3.65;;;;;;;18.78;46.87;101263.66;5095309;28;20073;-68
2021/11/21 02:53:22;;;;;;;5.40;3.92;;;;;;;18.78;46.56;101258.38;5095332;28;20055;-68
2021/11/21 02:55:50;;;;;;;5.53;4.28;;;;;;;18.78;46.74;101260.19;5094442;28;20447;-68
2021/11/21 02:58:15;;;;;;;5.22;3.70;;;;;;;18.77;46.73;101251.44;5095414;28;20019;-67
2021/11/21 03:00:41;;;;;;;5.63;3.92;;;;;;;18.76;46.74;101255.03;5094765;28;20596;-67
2021/11/21 03:03:06;;;;;;;5.95;4.13;;;;;;;18.75;46.89;101257.78;5094384;28;20127;-68
2021/11/21 03:05:36;;;;;;;5.50;4.00;;;;;;;18.76;46.74;101259.47;5094925;28;20031;-67
2021/11/21 03:08:02;;;;;;;5.32;3.83;;;;;;;18.75;46.94;101250.69;5094846;28;20032;-68
2021/11/21 03:10:28;;;;;;;6.40;4.13;;;;;;;18.74;46.73;101250.81;5093982;28;20359;-66
2021/11/21 03:12:57;;;;;;;5.50;4.18;;;;;;;18.74;46.60;101246.38;5094912;28;20044;-67
2021/11/21 03:15:24;;;;;;;5.13;3.70;;;;;;;18.74;46.73;101238.47;5094805;28;20509;-68
2021/11/21 03:17:50;;;;;;;5.18;3.88;;;;;;;18.73;46.63;101239.41;5093857;28;20123;-67
2021/11/21 03:20:24;;;;;;;5.53;4.03;;;;;;;18.73;46.78;101230.66;5094717;28;20107;-68
2021/11/21 03:22:50;;;;;;;5.68;3.85;;;;;;;18.72;46.75;101218.41;5094204;28;20036;-66
2021/11/21 03:25:15;;;;;;;5.85;4.28;;;;;;;18.71;46.65;101220.22;5094457;28;20479;-68
2021/11/21 03:27:41;;;;;;;6.05;4.10;;;;;;;18.71;46.48;101219.34;5094478;28;20111;-68
2021/11/21 03:30:12;;;;;;;5.18;3.83;;;;;;;18.70;46.77;101223.81;5093998;28;20032;-67
2021/11/21 03:32:38;;;;;;;5.63;3.80;;;;;;;18.70;46.94;101221.16;5094348;28;20138;-68
2021/11/21 03:35:04;;;;;;;5.65;3.97;;;;;;;18.68;46.79;101215.19;5094702;28;20106;-68
2021/11/21 03:37:30;;;;;;;6.20;4.40;;;;;;;18.68;46.60;101216.00;5093198;28;20459;-67
2021/11/21 03:39:55;;;;;;;5.95;4.07;;;;;;;18.68;46.74;101217.81;5094561;28;20047;-67
2021/11/21 03:42:20;;;;;;;5.82;4.30;;;;;;;18.66;46.94;101217.94;5093704;28;20371;-67
2021/11/21 03:44:46;;;;;;;5.97;4.25;;;;;;;18.66;46.63;101210.00;5093173;28;20028;-67
2021/11/21 03:47:11;;;;;;;6.60;4.20;;;;;;;18.67;46.70;101209.06;5094089;28;20028;-67
2021/11/21 03:49:37;;;;;;;5.80;4.10;;;;;;;18.65;46.75;101200.41;5093803;28;20538;-67
2021/11/21 03:52:03;;;;;;;6.32;4.40;;;;;;;18.66;46.90;101196.00;5093582;28;20035;-68
2021/11/21 03:54:28;;;;;;;5.90;4.40;;;;;;;18.65;46.82;101197.75;5093889;28;20032;-68
2021/11/21 03:56:54;;;;;;;7.00;5.22;;;;;;;18.65;46.73;101194.28;5094031;28;20498;-67
2021/11/21 03:59:19;;;;;;;6.95;4.60;;;;;;;18.64;46.74;101188.19;5093222;28;20039;-67
2021/11/21 04:01:46;;;;;;;7.88;4.65;;;;;;;18.65;47.09;101195.13;5093714;28;20024;-67
2021/11/21 04:04:12;;;;;;;6.13;4.60;;;;;;;18.64;46.63;101187.31;5094022;28;20036;-67
2021/11/21 04:06:38;;;;;;;6.57;4.65;;;;;;;18.64;46.77;101189.97;5092757;28;20371;-68
2021/11/21 04:09:04;;;;;;;6.25;4.70;;;;;;;18.64;46.88;101187.31;5093834;28;20031;-67
2021/11/21 04:11:30;;;;;;;6.72;4.95;;;;;;;18.63;46.83;101188.31;5093532;28;20067;-66
2021/11/21 04:13:56;;;;;;;6.32;4.50;;;;;;;18.62;46.83;101176.06;5092807;28;20044;-66
2021/11/21 04:16:21;;;;;;;6.47;4.95;;;;;;;18.63;46.83;101175.09;5093573;28;20162;-68
2021/11/21 04:18:46;;;;;;;6.57;4.87;;;;;;;18.61;46.70;101174.38;5093891;28;20042;-68
2021/11/21 04:21:12;;;;;;;6.65;5.03;;;;;;;18.61;46.84;101169.09;5093071;28;20280;-66
2021/11/21 04:23:37;;;;;;;7.27;5.20;;;;;;;18.60;46.70;101173.53;5093049;28;20047;-66
2021/11/21 04:26:02;;;;;;;6.60;4.78;;;;;;;18.59;46.95;101166.56;5093546;28;20371;-66
2021/11/21 04:28:28;;;;;;;6.28;4.65;;;;;;;18.61;46.75;101169.09;5092382;28;20024;-67
2021/11/21 04:30:54;;;;;;;6.68;5.18;;;;;;;18.59;46.62;101174.47;5093426;28;20023;-66
2021/11/21 04:33:23;;;;;;;6.60;5.20;;;;;;;18.59;47.04;101168.38;5092658;28;20055;-68
2021/11/21 04:35:48;;;;;;;6.18;5.10;;;;;;;18.58;46.97;101166.69;5093179;28;20032;-68
2021/11/21 04:38:14;;;;;;;6.80;4.88;;;;;;;18.58;46.78;101162.25;5093524;28;20356;-68
2021/11/21 04:40:40;;;;;;;6.78;5.07;;;;;;;18.58;46.62;101161.41;5092336;28;20032;-68
2021/11/21 04:43:06;;;;;;;7.03;5.32;;;;;;;18.56;46.71;101156.25;5093359;28;20050;-68
2021/11/21 04:45:31;;;;;;;6.47;4.88;;;;;;;18.57;46.78;101162.38;5092900;28;20077;-67
2021/11/21 04:47:56;;;;;;;7.13;5.05;;;;;;;18.57;46.99;101155.28;5092801;28;20028;-67
2021/11/21 04:50:21;;;;;;;6.50;5.30;;;;;;;18.56;46.72;101147.50;5093255;28;20043;-67
2021/11/21 04:52:47;;;;;;;7.28;5.10;;;;;;;18.56;46.71;101142.22;5092248;28;20272;-67
2021/11/21 04:55:13;;;;;;;6.80;4.80;;;;;;;18.56;46.74;101143.03;5091765;28;20044;-67
2021/11/21 04:57:41;;;;;;;6.82;5.22;;;;;;;18.56;46.82;101129.03;5092687;28;20043;-68
2021/11/21 05:00:15;;;;;;;7.25;5.50;;;;;;;18.55;46.67;101129.97;5092823;28;20375;-67
2021/11/21 05:02:41;;;;;;;7.30;5.55;;;;;;;18.55;46.69;101140.53;5092213;28;20039;-67
2021/11/21 05:05:08;;;;;;;6.85;5.25;;;;;;;18.54;47.01;101136.22;5092607;28;20048;-67
2021/11/21 05:07:34;;;;;;;6.90;5.47;;;;;;;18.54;46.46;101123.84;5092473;28;20467;-68
2021/11/21 05:09:59;;;;;;;7.55;5.25;;;;;;;18.54;46.69;101126.50;5092178;28;20031;-68
2021/11/21 05:12:24;;;;;;;7.13;5.18;;;;;;;18.53;46.74;101122.16;5092446;28;20043;-67
2021/11/21 05:14:52;;;;;;;7.82;5.53;;;;;;;18.53;46.80;101121.34;5092385;28;20028;-67
2021/11/21 05:17:17;;;;;;;6.88;5.20;;;;;;;18.52;46.67;101120.50;5091877;28;20028;-68
2021/11/21 05:19:42;;;;;;;7.88;5.95;;;;;;;18.53;46.76;101130.09;5092474;28;20077;-67
2021/11/21 05:22:07;;;;;;;8.82;6.10;;;;;;;18.52;46.98;101123.16;5092688;28;20115;-68
2021/11/21 05:24:33;;;;;;;7.95;5.90;;;;;;;18.51;47.01;101124.09;5091565;28;20063;-67
2021/11/21 05:26:58;;;;;;;7.27;5.67;;;;;;;18.51;47.02;101133.81;5092534;28;20395;-67
2021/11/21 05:29:23;;;;;;;8.10;5.43;;;;;;;18.50;46.97;101119.81;5092394;28;20277;-67
2021/11/21 05:31:49;;;;;;;7.32;5.88;;;;;;;18.48;46.80;101112.00;5092019;28;20021;-67
2021/11/21 05:34:15;;;;;;;7.85;6.30;;;;;;;18.51;47.10;101118.00;5092675;28;20020;-69
2021/11/21 05:36:40;;;;;;;7.22;5.05;;;;;;;18.50;46.94;101114.53;5091673;28;20244;-67
2021/11/21 05:39:05;;;;;;;7.30;5.55;;;;;;;18.48;46.92;101114.63;5092731;28;20523;-69
2021/11/21 05:41:31;;;;;;;7.47;5.70;;;;;;;18.48;46.76;101127.84;5092160;28;20024;-67
2021/11/21 05:43:56;;;;;;;8.15;5.95;;;;;;;18.48;46.93;101114.63;5091379;28;20043;-68
2021/11/21 05:46:21;;;;;;;7.97;6.05;;;;;;;18.48;46.85;101113.78;5092518;28;20509;-67
2021/11/21 05:48:47;;;;;;;7.88;5.82;;;;;;;18.47;46.80;101120.88;5092194;28;20120;-67
2021/11/21 05:51:12;;;;;;;8.23;5.72;;;;;;;18.46;47.25;101124.47;5091529;28;20036;-67
2021/11/21 05:53:38;;;;;;;7.68;5.93;;;;;;;18.49;46.99;101115.47;5092000;28;20024;-67
2021/11/21 05:56:03;;;;;;;7.57;6.10;;;;;;;18.49;47.05;101118.94;5092083;28;20058;-67
2021/11/21 05:58:29;;;;;;;7.70;5.43;;;;;;;18.51;47.25;101124.09;5091076;28;20040;-68
2021/11/21 06:00:54;;;;;;;6.70;5.18;;;;;;;18.52;46.91;101117.88;5092033;28;20379;-68
2021/11/21 06:03:20;;;;;;;7.85;5.47;;;;;;;18.55;46.85;101120.28;5092043;28;20055;-67
2021/11/21 06:05:45;;;;;;;6.53;5.38;;;;;;;18.55;47.03;101109.72;5093880;28;20031;-66
2021/11/21 06:08:10;;;;;;;6.93;5.45;;;;;;;18.57;46.83;101118.34;5096183;28;20466;-67
2021/11/21 06:10:35;;;;;;;7.30;5.40;;;;;;;18.58;46.94;101112.13;5095809;28;20036;-66
2021/11/21 06:13:01;;;;;;;6.53;5.00;;;;;;;18.60;47.12;101117.28;5095085;28;20047;-67
2021/11/21 06:15:26;;;;;;;6.25;5.05;;;;;;;18.61;47.44;101116.28;5095660;28;20490;-68
2021/11/21 06:17:52;;;;;;;6.63;4.95;;;;;;;18.62;47.72;101117.97;5096069;28;20546;-66
2021/11/21 06:20:17;;;;;;;6.45;4.72;;;;;;;18.64;47.50;101124.81;5095271;28;20036;-67
2021/11/21 06:22:42;;;;;;;5.30;3.97;;;;;;;18.66;47.78;101135.28;5095801;28;20035;-68
2021/11/21 06:25:09;;;;;;;6.45;4.30;;;;;;;18.68;47.84;101131.53;5095608;28;20036;-67
2021/11/21 06:27:35;;;;;;;6.25;4.47;;;;;;;18.70;47.89;101128.78;5094557;28;20047;-68
2021/11/21 06:30:00;;;;;;;7.15;4.40;;;;;;;18.73;47.91;101130.34;5095614;28;20024;-68
2021/11/21 06:32:26;;;;;;;5.97;4.28;;;;;;;18.74;48.09;101127.56;5095918;28;20093;-67
2021/11/21 06:34:51;;;;;;;5.57;4.10;;;;;;;18.77;47.96;101134.41;5094792;28;20016;-67
2021/11/21 06:37:16;;;;;;;5.70;3.83;;;;;;;18.79;48.06;101135.13;5095679;28;20116;-67
2021/11/21 06:39:42;;;;;;;5.63;4.07;;;;;;;18.79;48.03;101128.03;5095393;28;20056;-67
2021/11/21 06:42:11;;;;;;;5.72;4.00;;;;;;;18.83;47.98;101131.28;5094879;28;20115;-67
2021/11/21 06:44:37;;;;;;;5.90;4.10;;;;;;;18.82;48.02;101134.91;5094922;28;20042;-67
2021/11/21 06:47:02;;;;;;;5.68;3.80;;;;;;;18.85;48.04;101139.97;5094765;28;20016;-67
2021/11/21 06:49:29;;;;;;;5.50;3.80;;;;;;;18.88;48.11;101136.22;5095051;28;20020;-67
2021/11/21 06:51:54;;;;;;;5.85;4.03;;;;;;;18.87;47.90;101124.81;5095440;28;20483;-68
2021/11/21 06:54:19;;;;;;;5.70;4.18;;;;;;;18.90;47.84;101129.00;5094538;28;20031;-67
2021/11/21 06:56:44;;;;;;;5.72;4.00;;;;;;;18.92;47.80;101127.09;5094696;28;20038;-67
2021/11/21 06:59:10;;;;;;;5.40;3.92;;;;;;;18.93;47.86;101126.13;5095003;28;20031;-67
2021/11/21 07:01:35;;;;;;;5.80;4.13;;;;;;;18.95;47.79;101126.84;5094245;28;20382;-67
2021/11/21 07:04:01;;;;;;;5.50;3.97;;;;;;;18.96;47.83;101133.81;5095028;28;20039;-66
2021/11/21 07:06:35;;;;;;;6.22;4.45;;;;;;;18.97;47.98;101136.31;5094769;28;20028;-66
2021/11/21 07:09:03;;;;;;;6.28;4.20;;;;;;;18.98;47.97;101129.25;5094202;28;20038;-67
2021/11/21 07:11:29;;;;;;;5.53;4.00;;;;;;;18.98;47.83;101131.91;5094471;28;20031;-66
2021/11/21 07:13:54;;;;;;;5.63;3.83;;;;;;;19.01;47.70;101137.75;5094475;28;20040;-66
2021/11/21 07:16:20;;;;;;;5.20;3.60;;;;;;;19.01;47.70;101140.41;5093119;28;20056;-66
2021/11/21 07:18:46;;;;;;;5.70;4.05;;;;;;;19.02;47.97;101146.50;5094466;28;20055;-67
2021/11/21 07:21:12;;;;;;;5.57;3.75;;;;;;;19.03;47.87;101143.75;5095139;28;20085;-68
2021/11/21 07:23:37;;;;;;;6.88;3.80;;;;;;;19.05;47.65;101148.09;5093648;28;20027;-68
2021/11/21 07:26:04;;;;;;;5.55;3.78;;;;;;;19.06;47.74;101152.38;5094521;28;20038;-66
2021/11/21 07:28:30;;;;;;;5.75;3.90;;;;;;;19.06;47.79;101155.03;5094277;28;20383;-67
2021/11/21 07:30:55;;;;;;;5.97;4.00;;;;;;;19.06;47.80;101155.88;5094053;28;20028;-68
2021/11/21 07:33:20;;;;;;;5.38;3.85;;;;;;;19.08;47.98;101155.75;5094750;28;20035;-68
2021/11/21 07:35:46;;;;;;;7.25;4.80;;;;;;;19.07;47.48;101152.25;5094354;28;20486;-68
2021/11/21 07:38:11;;;;;;;7.18;4.50;;;;;;;19.09;47.55;101158.28;5093899;28;20031;-67
2021/11/21 07:40:36;;;;;;;5.90;4.18;;;;;;;19.11;47.75;101163.44;5093894;28;20479;-66
2021/11/21 07:43:02;;;;;;;6.45;4.78;;;;;;;19.11;47.79;101160.81;5094267;28;20024;-68
2021/11/21 07:45:27;;;;;;;5.70;3.92;;;;;;;19.12;47.56;101162.47;5093634;28;20106;-71
2021/11/21 07:47:52;;;;;;;6.68;3.92;;;;;;;19.13;47.63;101158.88;5094434;28;20162;-68
2021/11/21 07:50:21;;;;;;;7.10;4.03;;;;;;;19.13;47.68;101167.63;5093570;28;20020;-67
2021/11/21 07:52:48;;;;;;;5.20;3.85;;;;;;;19.15;47.86;101170.16;5094508;28;20056;-65
2021/11/21 07:55:14;;;;;;;6.45;3.90;;;;;;;19.20;47.83;101163.53;5094837;28;20043;-64
2021/11/21 07:57:40;;;;;;;5.97;3.90;;;;;;;19.31;47.66;101172.38;5093319;28;20066;-69
2021/11/21 08:00:10;;;;;;;5.13;3.85;;;;;;;19.46;47.41;101167.66;5094393;28;20415;-67
2021/11/21 08:02:36;;;;;;;7.28;4.25;;;;;;;19.55;46.92;101156.31;5094020;28;20021;-64
2021/11/21 08:05:02;;;;;;;7.43;4.25;;;;;;;19.66;46.74;101166.00;5093599;28;20048;-65
2021/11/21 08:07:27;;;;;;;6.97;4.25;;;;;;;19.74;46.33;101168.84;5094563;28;20428;-67
2021/11/21 08:09:52;;;;;;;7.28;4.38;;;;;;;19.80;46.31;101171.03;5094607;28;20111;-68
2021/11/21 08:12:18;;;;;;;5.63;3.90;;;;;;;19.86;46.06;101174.97;5093859;28;20111;-69
2021/11/21 08:14:43;;;;;;;6.40;4.00;;;;;;;19.90;46.08;101171.94;5093353;28;20756;-67
2021/11/21 08:17:08;;;;;;;6.22;4.25;;;;;;;19.92;45.72;101174.47;5094953;28;20379;-68
2021/11/21 08:19:34;;;;;;;7.72;4.35;;;;;;;19.95;45.97;101176.84;5092752;28;20039;-67
2021/11/21 08:21:59;;;;;;;5.65;4.03;;;;;;;20.00;45.62;101182.59;5093742;28;20104;-64
2021/11/21 08:24:27;;;;;;;5.93;4.13;;;;;;;20.01;45.59;101180.78;5093685;28;20490;-67
2021/11/21 08:26:52;;;;;;;6.50;4.13;;;;;;;20.05;45.68;101190.16;5093054;28;20036;-64
2021/11/21 08:29:18;;;;;;;6.28;4.07;;;;;;;20.08;45.72;101181.97;5093292;28;20324;-64
2021/11/21 08:31:43;;;;;;;5.90;4.07;;;;;;;20.11;45.72;101184.34;5093368;28;20031;-63
2021/11/21 08:34:09;;;;;;;7.38;4.15;;;;;;;20.12;45.86;101186.00;5092755;28;20016;-62
2021/11/21 08:36:35;;;;;;;7.60;4.45;;;;;;;20.15;45.76;101184.91;5092991;28;20048;-63
2021/11/21 08:39:01;;;;;;;5.85;4.05;;;;;;;20.13;45.75;101186.88;5093186;28;20103;-62
2021/11/21 08:41:26;;;;;;;6.43;4.15;;;;;;;20.15;45.74;101195.50;5092696;28;20016;-64
2021/11/21 08:43:51;;;;;;;4.80;3.25;;;;;;;20.15;45.78;101195.50;5093362;28;20456;-61
2021/11/21 08:46:17;;;;;;;7.65;4.03;;;;;;;20.15;45.97;101196.31;5095862;28;20131;-62
2021/11/21 08:48:42;;;;;;;6.68;3.65;;;;;;;20.15;45.94;101198.16;5095659;28;20038;-63
2021/11/21 08:51:07;;;;;;;6.13;3.70;;;;;;;20.16;45.93;101203.31;5093756;28;20486;-63
2021/11/21 08:53:33;;;;;;;5.53;3.47;;;;;;;20.16;45.94;101197.19;5092193;28;20111;-63
2021/11/21 08:55:58;;;;;;;7.07;3.72;;;;;;;20.16;45.87;101203.31;5093895;28;20275;-66
2021/11/21 08:58:24;;;;;;;5.40;3.28;;;;;;;20.17;46.13;101194.41;5093298;28;20016;-68
2021/11/21 09:00:49;;;;;;;6.00;3.67;;;;;;;20.14;46.11;101192.03;5092293;28;20125;-66
2021/11/21 09:03:14;;;;;;;4.90;3.50;;;;;;;20.15;46.23;101192.84;5093189;28;20036;-64
2021/11/21 09:05:40;;;;;;;6.00;3.55;;;;;;;20.13;46.06;101189.50;5098668;28;20027;-66
2021/11/21 09:08:11;;;;;;;5.40;3.10;;;;;;;20.12;46.21;101188.66;5096002;28;20027;-63
2021/11/21 09:10:39;;;;;;;5.15;3.38;;;;;;;20.14;46.22;101192.03;5093232;28;20471;-64
2021/11/21 09:13:04;;;;;;;4.90;3.15;;;;;;;20.14;45.98;101192.03;5093292;28;20110;-63
2021/11/21 09:15:30;;;;;;;5.80;3.00;;;;;;;20.14;45.76;101189.38;5091751;28;20028;-62
2021/11/21 09:17:55;;;;;;;7.18;3.25;;;;;;;20.15;46.48;101198.97;5096356;28;20032;-65
2021/11/21 09:20:23;;;;;;;5.25;3.30;;;;;;;20.12;46.11;101204.53;5092777;28;20482;-66
2021/11/21 09:22:49;;;;;;;5.03;3.10;;;;;;;20.05;46.34;101198.09;5091560;28;20387;-63
2021/11/21 09:25:15;;;;;;;4.60;2.80;;;;;;;20.05;46.05;101206.03;5092613;28;20024;-61
2021/11/21 09:27:40;;;;;;;6.57;2.80;;;;;;;20.02;46.19;101207.09;5092388;28;20020;-66
2021/11/21 09:30:07;;;;;;;5.73;3.00;;;;;;;20.01;46.41;101212.53;5093186;28;20472;-63
2021/11/21 09:32:34;;;;;;;6.10;2.45;;;;;;;20.00;46.51;101213.50;5092592;28;20322;-63
2021/11/21 09:35:00;;;;;;;8.52;2.70;;;;;;;19.98;46.06;101205.72;5093163;28;20483;-64
2021/11/21 09:37:28;;;;;;;4.35;2.58;;;;;;;19.98;46.43;101218.06;5092296;28;20085;-64
2021/11/21 09:39:53;;;;;;;4.35;2.42;;;;;;;19.96;46.29;101212.91;5091910;28;20502;-64
2021/11/21 09:42:19;;;;;;;4.28;2.30;;;;;;;19.97;46.35;101222.53;5092316;28;20047;-65
2021/11/21 09:44:44;;;;;;;6.20;2.55;;;;;;;19.99;46.62;101225.06;5096104;28;20024;-65
2021/11/21 09:47:13;;;;;;;4.93;2.42;;;;;;;20.00;46.51;101224.09;5096905;28;20031;-66
2021/11/21 09:49:39;;;;;;;4.78;2.50;;;;;;;19.99;46.59;101215.28;5096740;28;20028;-67
2021/11/21 09:52:05;;;;;;;5.68;2.55;;;;;;;20.02;46.40;101219.50;5095717;28;20035;-65
2021/11/21 09:54:33;;;;;;;4.60;2.28;;;;;;;20.02;46.46;101222.16;5093051;28;20084;-65
2021/11/21 09:57:01;;;;;;;4.50;2.28;;;;;;;19.99;46.31;101220.59;5092028;28;20027;-65
2021/11/21 09:59:53;;;;;;;4.20;2.20;;;;;;;19.99;46.38;101223.22;5092736;28;20028;-62
2021/11/21 10:02:24;;;;;;;4.97;2.22;;;;;;;20.00;46.50;101229.38;5093125;28;20416;-61
2021/11/21 10:04:50;;;;;;;4.53;2.05;;;;;;;19.99;46.17;101233.81;5092113;28;20032;-63
2021/11/21 10:07:31;;;;;;;4.72;2.10;;;;;;;19.97;46.18;101227.81;5092719;28;20119;-64
2021/11/21 10:09:58;;;;;;;5.38;2.28;;;;;;;19.96;46.26;101220.00;5092471;28;20089;-64
2021/11/21 10:12:32;;;;;;;5.32;2.60;;;;;;;19.95;46.31;101221.84;5093185;28;20024;-67
2021/11/21 10:15:03;;;;;;;3.83;2.10;;;;;;;19.90;46.50;101221.34;5092325;28;20407;-64
2021/11/21 10:17:31;;;;;;;5.20;1.92;;;;;;;19.87;46.44;101225.09;5092126;28;20331;-62
2021/11/21 10:20:16;;;;;;;3.33;1.67;;;;;;;19.85;46.67;101215.59;5091361;28;20468;-63
2021/11/21 10:22:55;;;;;;;;;;;;;;;19.84;46.47;101213.94;5092326;28;20036;-62
2021/11/21 10:25:38;;;;;;;3.85;1.83;;;;;;;19.85;46.63;101210.31;5091657;28;20275;-64
2021/11/21 10:28:06;;;;;;;5.43;2.05;;;;;;;19.86;46.55;101212.00;5092092;28;20032;-64
2021/11/21 10:30:33;;;;;;;4.22;1.88;;;;;;;19.85;46.45;101218.25;5092141;28;20032;-64
2021/11/21 10:33:04;;;;;;;4.03;1.70;;;;;;;19.86;46.50;101225.22;5091812;28;20065;-64
2021/11/21 10:35:33;;;;;;;4.80;1.70;;;;;;;19.86;46.73;101220.78;5092322;28;20036;-62
2021/11/21 10:37:59;;;;;;;6.80;2.08;;;;;;;19.86;46.68;101218.13;5092310;28;20081;-63
2021/11/21 10:40:25;;;;;;;5.13;1.75;;;;;;;19.82;46.62;101216.72;5091475;28;20024;-62
2021/11/21 10:42:51;;;;;;;4.28;1.95;;;;;;;19.83;46.81;101223.66;5091937;28;20032;-64
2021/11/21 10:45:23;;;;;;;4.57;1.52;;;;;;;19.82;47.02;101218.50;5091934;28;20027;-65
2021/11/21 10:47:58;;;;;;;6.40;1.95;;;;;;;19.86;46.87;101215.47;5090947;28;20028;-63
2021/11/21 10:50:31;;;;;;;3.75;1.48;;;;;;;19.92;46.80;101217.63;5091942;28;20055;-63
2021/11/21 10:52:59;;;;;;;6.90;1.90;;;;;;;19.97;46.56;101219.88;5094360;28;20235;-63
2021/11/21 10:55:25;;;;;;;3.85;1.70;;;;;;;20.01;46.58;101225.75;5095824;28;20020;-62
2021/11/21 10:57:50;;;;;;;4.82;2.00;;;;;;;20.03;46.73;101219.38;5095542;28;20032;-67
2021/11/21 11:00:18;;;;;;;5.80;2.10;;;;;;;20.05;46.48;101221.91;5094748;28;20024;-62
2021/11/21 11:02:44;;;;;;;4.78;1.80;;;;;;;20.07;46.55;101227.88;5095259;28;20104;-63
2021/11/21 11:05:13;;;;;;;3.67;1.55;;;;;;;20.09;46.74;101228.59;5095748;28;20490;-63
2021/11/21 11:07:52;;;;;;;3.83;1.50;;;;;;;20.11;46.54;101234.63;5094738;28;20027;-66
2021/11/21 11:10:26;;;;;;;4.03;1.50;;;;;;;20.11;46.38;101227.50;5095446;28;20028;-65
2021/11/21 11:12:54;;;;;;;3.90;1.50;;;;;;;20.11;46.71;101227.50;5094878;28;20048;-65
2021/11/21 11:15:21;;;;;;;4.95;1.63;;;;;;;20.12;46.46;101230.97;5094410;28;20047;-62
2021/11/21 11:17:47;;;;;;;3.80;1.40;;;;;;;20.13;46.43;101231.84;5094793;28;20031;-64
2021/11/21 11:20:16;;;;;;;3.65;1.30;;;;;;;20.13;46.64;101230.03;5094901;28;20028;-63